sensor_id;sensor_type;location;lat;lon;timestamp;temperature;humidity
18658;DHT22;9458;50.942;5.074;2022-10-31T00:01:19;15.20;99.90
18658;DHT22;9458;50.942;5.074;2022-10-31T00:03:53;15.20;99.90
18658;DHT22;9458;50.942;5.074;2022-10-31T00:06:21;15.20;99.90
18658;DHT22;9458;50.942;5.074;2022-10-31T00:08:53;15.20;99.90
18658;DHT22;9458;50.942;5.074;2022-10-31T00:11:21;15.10;99.90
18658;DHT22;9458;50.942;5.074;2022-10-31T00:13:53;15.10;99.90
18658;DHT22;9458;50.942;5.074;2022-10-31T00:16:23;15.10;99.90
18658;DHT22;9458;50.942;5.074;2022-10-31T00:18:53;15.10;99.90
18658;DHT22;9458;50.942;5.074;2022-10-31T00:21:22;15.10;99.90
18658;DHT22;9458;50.942;5.074;2022-10-31T00:23:51;15.10;99.90
18658;DHT22;9458;50.942;5.074;2022-10-31T00:26:20;15.10;99.90
18658;DHT22;9458;50.942;5.074;2022-10-31T00:28:49;15.10;99.90
18658;DHT22;9458;50.942;5.074;2022-10-31T00:31:18;15.10;99.90
18658;DHT22;9458;50.942;5.074;2022-10-31T00:33:50;15.10;99.90
18658;DHT22;9458;50.942;5.074;2022-10-31T00:36:19;15.10;99.90
18658;DHT22;9458;50.942;5.074;2022-10-31T00:38:47;15.10;99.90
18658;DHT22;9458;50.942;5.074;2022-10-31T00:41:16;15.10;99.90
18658;DHT22;9458;50.942;5.074;2022-10-31T00:43:46;15.10;99.90
18658;DHT22;9458;50.942;5.074;2022-10-31T00:46:14;15.10;99.90
18658;DHT22;9458;50.942;5.074;2022-10-31T00:48:42;15.10;99.90
18658;DHT22;9458;50.942;5.074;2022-10-31T00:51:12;15.10;99.90
18658;DHT22;9458;50.942;5.074;2022-10-31T00:53:40;15.10;99.90
18658;DHT22;9458;50.942;5.074;2022-10-31T00:56:09;15.00;99.90
18658;DHT22;9458;50.942;5.074;2022-10-31T00:58:38;15.00;99.90
18658;DHT22;9458;50.942;5.074;2022-10-31T01:01:06;15.00;99.90
18658;DHT22;9458;50.942;5.074;2022-10-31T01:03:34;15.00;99.90
18658;DHT22;9458;50.942;5.074;2022-10-31T01:06:03;14.90;99.90
18658;DHT22;9458;50.942;5.074;2022-10-31T01:08:35;14.90;99.90
18658;DHT22;9458;50.942;5.074;2022-10-31T01:11:06;14.90;99.90
18658;DHT22;9458;50.942;5.074;2022-10-31T01:13:34;14.90;99.90
18658;DHT22;9458;50.942;5.074;2022-10-31T01:16:05;14.80;99.90
18658;DHT22;9458;50.942;5.074;2022-10-31T01:18:33;14.80;99.90
18658;DHT22;9458;50.942;5.074;2022-10-31T01:21:06;14.80;99.90
18658;DHT22;9458;50.942;5.074;2022-10-31T01:23:36;14.80;99.90
18658;DHT22;9458;50.942;5.074;2022-10-31T01:26:09;14.80;99.90
18658;DHT22;9458;50.942;5.074;2022-10-31T01:28:44;14.80;99.90
18658;DHT22;9458;50.942;5.074;2022-10-31T01:31:16;14.70;99.90
18658;DHT22;9458;50.942;5.074;2022-10-31T01:33:46;14.70;99.90
18658;DHT22;9458;50.942;5.074;2022-10-31T01:36:19;14.60;99.90
18658;DHT22;9458;50.942;5.074;2022-10-31T01:38:50;14.60;99.90
18658;DHT22;9458;50.942;5.074;2022-10-31T01:41:20;14.60;99.90
18658;DHT22;9458;50.942;5.074;2022-10-31T01:43:51;14.60;99.90
18658;DHT22;9458;50.942;5.074;2022-10-31T01:46:22;14.60;99.90
18658;DHT22;9458;50.942;5.074;2022-10-31T01:48:53;14.60;99.90
18658;DHT22;9458;50.942;5.074;2022-10-31T01:51:25;14.50;99.90
18658;DHT22;9458;50.942;5.074;2022-10-31T01:54:00;14.60;99.90
18658;DHT22;9458;50.942;5.074;2022-10-31T01:56:29;14.60;99.90
18658;DHT22;9458;50.942;5.074;2022-10-31T01:58:59;14.50;99.90
18658;DHT22;9458;50.942;5.074;2022-10-31T02:01:29;14.50;99.90
18658;DHT22;9458;50.942;5.074;2022-10-31T02:03:57;14.50;99.90
18658;DHT22;9458;50.942;5.074;2022-10-31T02:06:33;14.50;99.90
18658;DHT22;9458;50.942;5.074;2022-10-31T02:09:05;14.40;99.90
18658;DHT22;9458;50.942;5.074;2022-10-31T02:11:34;14.50;99.90
18658;DHT22;9458;50.942;5.074;2022-10-31T02:14:03;14.40;99.90
18658;DHT22;9458;50.942;5.074;2022-10-31T02:16:30;14.30;99.90
18658;DHT22;9458;50.942;5.074;2022-10-31T02:18:59;14.30;99.90
18658;DHT22;9458;50.942;5.074;2022-10-31T02:21:33;14.30;99.90
18658;DHT22;9458;50.942;5.074;2022-10-31T02:24:27;14.30;99.90
18658;DHT22;9458;50.942;5.074;2022-10-31T02:27:07;14.20;99.90
18658;DHT22;9458;50.942;5.074;2022-10-31T02:33:00;14.20;99.90
18658;DHT22;9458;50.942;5.074;2022-10-31T02:35:42;14.20;99.90
18658;DHT22;9458;50.942;5.074;2022-10-31T02:38:23;14.20;99.90
18658;DHT22;9458;50.942;5.074;2022-10-31T02:40:59;14.20;99.90
18658;DHT22;9458;50.942;5.074;2022-10-31T02:43:35;14.20;99.90
18658;DHT22;9458;50.942;5.074;2022-10-31T02:46:07;14.20;99.90
18658;DHT22;9458;50.942;5.074;2022-10-31T02:48:39;14.20;99.90
18658;DHT22;9458;50.942;5.074;2022-10-31T02:51:10;14.20;99.90
18658;DHT22;9458;50.942;5.074;2022-10-31T02:53:38;14.10;99.90
18658;DHT22;9458;50.942;5.074;2022-10-31T02:56:08;14.10;99.90
18658;DHT22;9458;50.942;5.074;2022-10-31T02:58:41;14.00;99.90
18658;DHT22;9458;50.942;5.074;2022-10-31T03:01:20;14.00;99.90
18658;DHT22;9458;50.942;5.074;2022-10-31T03:04:07;14.00;99.90
18658;DHT22;9458;50.942;5.074;2022-10-31T03:06:43;13.90;99.90
18658;DHT22;9458;50.942;5.074;2022-10-31T03:09:20;13.90;99.90
18658;DHT22;9458;50.942;5.074;2022-10-31T03:11:58;13.90;99.90
18658;DHT22;9458;50.942;5.074;2022-10-31T03:14:31;13.90;99.90
18658;DHT22;9458;50.942;5.074;2022-10-31T03:17:03;13.90;99.90
18658;DHT22;9458;50.942;5.074;2022-10-31T03:19:37;13.90;99.90
18658;DHT22;9458;50.942;5.074;2022-10-31T03:22:10;13.90;99.90
18658;DHT22;9458;50.942;5.074;2022-10-31T03:24:40;13.90;99.90
18658;DHT22;9458;50.942;5.074;2022-10-31T03:27:10;13.90;99.90
18658;DHT22;9458;50.942;5.074;2022-10-31T03:29:40;13.90;99.90
18658;DHT22;9458;50.942;5.074;2022-10-31T03:32:12;13.90;99.90
18658;DHT22;9458;50.942;5.074;2022-10-31T03:34:44;13.90;99.90
18658;DHT22;9458;50.942;5.074;2022-10-31T03:37:15;13.90;99.90
18658;DHT22;9458;50.942;5.074;2022-10-31T03:39:45;13.90;99.90
18658;DHT22;9458;50.942;5.074;2022-10-31T03:42:15;13.90;99.90
18658;DHT22;9458;50.942;5.074;2022-10-31T03:44:53;13.90;99.90
18658;DHT22;9458;50.942;5.074;2022-10-31T03:47:21;13.90;99.90
18658;DHT22;9458;50.942;5.074;2022-10-31T03:49:52;13.90;99.90
18658;DHT22;9458;50.942;5.074;2022-10-31T03:52:24;13.90;99.90
18658;DHT22;9458;50.942;5.074;2022-10-31T03:54:56;13.90;99.90
18658;DHT22;9458;50.942;5.074;2022-10-31T03:57:33;13.90;99.90
18658;DHT22;9458;50.942;5.074;2022-10-31T04:00:06;13.90;99.90
18658;DHT22;9458;50.942;5.074;2022-10-31T04:02:37;13.90;99.90
18658;DHT22;9458;50.942;5.074;2022-10-31T04:05:09;13.90;99.90
18658;DHT22;9458;50.942;5.074;2022-10-31T04:07:41;13.90;99.90
18658;DHT22;9458;50.942;5.074;2022-10-31T04:10:12;13.90;99.90
18658;DHT22;9458;50.942;5.074;2022-10-31T04:12:42;13.90;99.90
18658;DHT22;9458;50.942;5.074;2022-10-31T04:15:11;13.90;99.90
18658;DHT22;9458;50.942;5.074;2022-10-31T04:17:42;13.90;99.90
18658;DHT22;9458;50.942;5.074;2022-10-31T04:20:17;13.90;99.90
18658;DHT22;9458;50.942;5.074;2022-10-31T04:22:45;13.90;99.90
18658;DHT22;9458;50.942;5.074;2022-10-31T04:25:12;13.90;99.90
18658;DHT22;9458;50.942;5.074;2022-10-31T04:27:40;13.90;99.90
18658;DHT22;9458;50.942;5.074;2022-10-31T04:30:10;13.80;99.90
18658;DHT22;9458;50.942;5.074;2022-10-31T04:32:37;13.80;99.90
18658;DHT22;9458;50.942;5.074;2022-10-31T04:35:05;13.80;99.90
18658;DHT22;9458;50.942;5.074;2022-10-31T04:37:34;13.80;99.90
18658;DHT22;9458;50.942;5.074;2022-10-31T04:40:03;13.80;99.90
18658;DHT22;9458;50.942;5.074;2022-10-31T04:42:31;13.70;99.90
18658;DHT22;9458;50.942;5.074;2022-10-31T04:44:59;13.70;99.90
18658;DHT22;9458;50.942;5.074;2022-10-31T04:47:27;13.70;99.90
18658;DHT22;9458;50.942;5.074;2022-10-31T04:49:54;13.70;99.90
18658;DHT22;9458;50.942;5.074;2022-10-31T04:52:23;13.70;99.90
18658;DHT22;9458;50.942;5.074;2022-10-31T04:54:52;13.70;99.90
18658;DHT22;9458;50.942;5.074;2022-10-31T04:57:21;13.60;99.90
18658;DHT22;9458;50.942;5.074;2022-10-31T04:59:49;13.60;99.90
18658;DHT22;9458;50.942;5.074;2022-10-31T05:02:18;13.60;99.90
18658;DHT22;9458;50.942;5.074;2022-10-31T05:04:46;13.60;99.90
18658;DHT22;9458;50.942;5.074;2022-10-31T05:07:13;13.60;99.90
18658;DHT22;9458;50.942;5.074;2022-10-31T05:09:41;13.50;99.90
18658;DHT22;9458;50.942;5.074;2022-10-31T05:12:11;13.60;99.90
18658;DHT22;9458;50.942;5.074;2022-10-31T05:14:38;13.60;99.90
18658;DHT22;9458;50.942;5.074;2022-10-31T05:17:06;13.60;99.90
18658;DHT22;9458;50.942;5.074;2022-10-31T05:19:33;13.60;99.90
18658;DHT22;9458;50.942;5.074;2022-10-31T05:22:01;13.60;99.90
18658;DHT22;9458;50.942;5.074;2022-10-31T05:24:29;13.60;99.90
18658;DHT22;9458;50.942;5.074;2022-10-31T05:26:56;13.60;99.90
18658;DHT22;9458;50.942;5.074;2022-10-31T05:29:26;13.50;99.90
18658;DHT22;9458;50.942;5.074;2022-10-31T05:31:54;13.50;99.90
18658;DHT22;9458;50.942;5.074;2022-10-31T05:34:22;13.50;99.90
18658;DHT22;9458;50.942;5.074;2022-10-31T05:36:50;13.50;99.90
18658;DHT22;9458;50.942;5.074;2022-10-31T05:39:18;13.50;99.90
18658;DHT22;9458;50.942;5.074;2022-10-31T05:41:46;13.50;99.90
18658;DHT22;9458;50.942;5.074;2022-10-31T05:44:14;13.60;99.90
18658;DHT22;9458;50.942;5.074;2022-10-31T05:46:46;13.60;99.90
18658;DHT22;9458;50.942;5.074;2022-10-31T05:49:13;13.60;99.90
18658;DHT22;9458;50.942;5.074;2022-10-31T05:51:40;13.50;99.90
18658;DHT22;9458;50.942;5.074;2022-10-31T05:54:08;13.50;99.90
18658;DHT22;9458;50.942;5.074;2022-10-31T05:56:37;13.50;99.90
18658;DHT22;9458;50.942;5.074;2022-10-31T05:59:05;13.50;99.90
18658;DHT22;9458;50.942;5.074;2022-10-31T06:01:33;13.50;99.90
18658;DHT22;9458;50.942;5.074;2022-10-31T06:04:03;13.50;99.90
18658;DHT22;9458;50.942;5.074;2022-10-31T06:06:31;13.50;99.90
18658;DHT22;9458;50.942;5.074;2022-10-31T06:09:00;13.50;99.90
18658;DHT22;9458;50.942;5.074;2022-10-31T06:11:28;13.50;99.90
18658;DHT22;9458;50.942;5.074;2022-10-31T06:13:56;13.50;99.90
18658;DHT22;9458;50.942;5.074;2022-10-31T06:16:24;13.50;99.90
18658;DHT22;9458;50.942;5.074;2022-10-31T06:18:52;13.50;99.90
18658;DHT22;9458;50.942;5.074;2022-10-31T06:21:22;13.40;99.90
18658;DHT22;9458;50.942;5.074;2022-10-31T06:23:50;13.40;99.90
18658;DHT22;9458;50.942;5.074;2022-10-31T06:26:19;13.40;99.90
18658;DHT22;9458;50.942;5.074;2022-10-31T06:28:47;13.40;99.90
18658;DHT22;9458;50.942;5.074;2022-10-31T06:31:16;13.40;99.90
18658;DHT22;9458;50.942;5.074;2022-10-31T06:33:44;13.40;99.90
18658;DHT22;9458;50.942;5.074;2022-10-31T06:36:11;13.40;99.90
18658;DHT22;9458;50.942;5.074;2022-10-31T06:38:42;13.40;99.90
18658;DHT22;9458;50.942;5.074;2022-10-31T06:41:10;13.40;99.90
18658;DHT22;9458;50.942;5.074;2022-10-31T06:43:38;13.30;99.90
18658;DHT22;9458;50.942;5.074;2022-10-31T06:46:07;13.30;99.90
18658;DHT22;9458;50.942;5.074;2022-10-31T06:48:35;13.30;99.90
18658;DHT22;9458;50.942;5.074;2022-10-31T06:51:02;13.40;99.90
18658;DHT22;9458;50.942;5.074;2022-10-31T06:53:30;13.40;99.90
18658;DHT22;9458;50.942;5.074;2022-10-31T06:55:59;13.30;99.90
18658;DHT22;9458;50.942;5.074;2022-10-31T06:58:28;13.30;99.90
18658;DHT22;9458;50.942;5.074;2022-10-31T07:00:59;13.30;99.90
18658;DHT22;9458;50.942;5.074;2022-10-31T07:03:26;13.40;99.90
18658;DHT22;9458;50.942;5.074;2022-10-31T07:05:55;13.40;99.90
18658;DHT22;9458;50.942;5.074;2022-10-31T07:08:23;13.40;99.90
18658;DHT22;9458;50.942;5.074;2022-10-31T07:10:52;13.40;99.90
18658;DHT22;9458;50.942;5.074;2022-10-31T07:13:23;13.50;99.90
18658;DHT22;9458;50.942;5.074;2022-10-31T07:15:54;13.50;99.90
18658;DHT22;9458;50.942;5.074;2022-10-31T07:18:22;13.50;99.90
18658;DHT22;9458;50.942;5.074;2022-10-31T07:20:51;13.50;99.90
18658;DHT22;9458;50.942;5.074;2022-10-31T07:23:19;13.60;99.90
18658;DHT22;9458;50.942;5.074;2022-10-31T07:25:47;13.60;99.90
18658;DHT22;9458;50.942;5.074;2022-10-31T07:28:15;13.60;99.90
18658;DHT22;9458;50.942;5.074;2022-10-31T07:30:50;13.70;99.90
18658;DHT22;9458;50.942;5.074;2022-10-31T07:33:18;13.70;99.90
18658;DHT22;9458;50.942;5.074;2022-10-31T07:35:46;13.70;99.90
18658;DHT22;9458;50.942;5.074;2022-10-31T07:38:15;13.70;99.90
18658;DHT22;9458;50.942;5.074;2022-10-31T07:40:43;13.70;99.90
18658;DHT22;9458;50.942;5.074;2022-10-31T07:43:11;13.70;99.90
18658;DHT22;9458;50.942;5.074;2022-10-31T07:45:39;13.70;99.90
18658;DHT22;9458;50.942;5.074;2022-10-31T07:48:08;13.80;99.90
18658;DHT22;9458;50.942;5.074;2022-10-31T07:50:35;13.80;99.90
18658;DHT22;9458;50.942;5.074;2022-10-31T07:53:04;13.80;99.90
18658;DHT22;9458;50.942;5.074;2022-10-31T07:55:35;13.90;99.90
18658;DHT22;9458;50.942;5.074;2022-10-31T07:58:04;14.10;99.90
18658;DHT22;9458;50.942;5.074;2022-10-31T08:00:34;14.30;99.90
18658;DHT22;9458;50.942;5.074;2022-10-31T08:03:03;14.50;99.90
18658;DHT22;9458;50.942;5.074;2022-10-31T08:05:34;14.60;99.90
18658;DHT22;9458;50.942;5.074;2022-10-31T08:08:03;14.60;99.90
18658;DHT22;9458;50.942;5.074;2022-10-31T08:10:31;14.60;99.90
18658;DHT22;9458;50.942;5.074;2022-10-31T08:13:01;14.60;99.90
18658;DHT22;9458;50.942;5.074;2022-10-31T08:15:29;14.60;99.90
18658;DHT22;9458;50.942;5.074;2022-10-31T08:17:58;14.60;99.90
18658;DHT22;9458;50.942;5.074;2022-10-31T08:20:25;14.60;99.90
18658;DHT22;9458;50.942;5.074;2022-10-31T08:22:56;14.80;99.90
18658;DHT22;9458;50.942;5.074;2022-10-31T08:25:25;15.00;99.90
18658;DHT22;9458;50.942;5.074;2022-10-31T08:27:54;15.20;99.90
18658;DHT22;9458;50.942;5.074;2022-10-31T08:30:25;15.20;99.90
18658;DHT22;9458;50.942;5.074;2022-10-31T08:33:00;15.50;99.90
18658;DHT22;9458;50.942;5.074;2022-10-31T08:35:28;15.70;99.90
18658;DHT22;9458;50.942;5.074;2022-10-31T08:37:59;15.80;99.90
18658;DHT22;9458;50.942;5.074;2022-10-31T08:40:29;15.90;99.90
18658;DHT22;9458;50.942;5.074;2022-10-31T08:42:58;15.80;99.90
18658;DHT22;9458;50.942;5.074;2022-10-31T08:45:27;15.80;99.90
18658;DHT22;9458;50.942;5.074;2022-10-31T08:48:00;15.70;99.90
18658;DHT22;9458;50.942;5.074;2022-10-31T08:50:30;15.50;99.90
18658;DHT22;9458;50.942;5.074;2022-10-31T08:53:04;15.50;99.90
18658;DHT22;9458;50.942;5.074;2022-10-31T08:55:33;15.50;99.90
18658;DHT22;9458;50.942;5.074;2022-10-31T08:58:03;15.60;99.90
18658;DHT22;9458;50.942;5.074;2022-10-31T09:00:31;15.60;99.90
18658;DHT22;9458;50.942;5.074;2022-10-31T09:03:02;15.80;99.90
18658;DHT22;9458;50.942;5.074;2022-10-31T09:05:31;16.00;99.90
18658;DHT22;9458;50.942;5.074;2022-10-31T09:08:00;16.00;99.90
18658;DHT22;9458;50.942;5.074;2022-10-31T09:10:31;16.10;99.90
18658;DHT22;9458;50.942;5.074;2022-10-31T09:12:59;16.30;99.90
18658;DHT22;9458;50.942;5.074;2022-10-31T09:15:28;16.40;99.90
18658;DHT22;9458;50.942;5.074;2022-10-31T09:17:55;16.40;99.90
18658;DHT22;9458;50.942;5.074;2022-10-31T09:20:23;16.30;99.90
18658;DHT22;9458;50.942;5.074;2022-10-31T09:22:56;16.20;99.90
18658;DHT22;9458;50.942;5.074;2022-10-31T09:25:24;16.10;99.90
18658;DHT22;9458;50.942;5.074;2022-10-31T09:27:57;16.10;99.90
18658;DHT22;9458;50.942;5.074;2022-10-31T09:30:25;16.20;99.90
18658;DHT22;9458;50.942;5.074;2022-10-31T09:32:55;16.20;99.90
18658;DHT22;9458;50.942;5.074;2022-10-31T09:35:24;16.10;99.90
18658;DHT22;9458;50.942;5.074;2022-10-31T09:37:55;16.10;99.90
18658;DHT22;9458;50.942;5.074;2022-10-31T09:40:33;16.10;99.90
18658;DHT22;9458;50.942;5.074;2022-10-31T09:43:08;16.10;99.90
18658;DHT22;9458;50.942;5.074;2022-10-31T09:45:44;16.10;99.90
18658;DHT22;9458;50.942;5.074;2022-10-31T09:48:27;16.10;99.90
18658;DHT22;9458;50.942;5.074;2022-10-31T09:50:58;16.10;99.90
18658;DHT22;9458;50.942;5.074;2022-10-31T09:53:32;16.20;99.90
18658;DHT22;9458;50.942;5.074;2022-10-31T09:56:02;16.20;99.90
18658;DHT22;9458;50.942;5.074;2022-10-31T09:58:47;16.20;99.90
18658;DHT22;9458;50.942;5.074;2022-10-31T10:01:25;16.20;99.90
18658;DHT22;9458;50.942;5.074;2022-10-31T10:04:01;16.20;99.90
18658;DHT22;9458;50.942;5.074;2022-10-31T10:06:34;16.10;99.90
18658;DHT22;9458;50.942;5.074;2022-10-31T10:09:03;16.10;99.90
18658;DHT22;9458;50.942;5.074;2022-10-31T10:11:44;16.20;99.90
18658;DHT22;9458;50.942;5.074;2022-10-31T10:17:15;16.20;99.90
18658;DHT22;9458;50.942;5.074;2022-10-31T10:20:14;16.20;99.90
18658;DHT22;9458;50.942;5.074;2022-10-31T10:22:51;16.20;99.90
18658;DHT22;9458;50.942;5.074;2022-10-31T10:25:22;16.20;99.90
18658;DHT22;9458;50.942;5.074;2022-10-31T10:28:01;16.20;99.90
18658;DHT22;9458;50.942;5.074;2022-10-31T10:30:35;16.30;99.90
18658;DHT22;9458;50.942;5.074;2022-10-31T10:33:09;16.30;99.90
18658;DHT22;9458;50.942;5.074;2022-10-31T10:35:42;16.30;99.90
18658;DHT22;9458;50.942;5.074;2022-10-31T10:38:17;16.20;99.90
18658;DHT22;9458;50.942;5.074;2022-10-31T10:40:46;16.20;99.90
18658;DHT22;9458;50.942;5.074;2022-10-31T10:43:23;16.20;99.90
18658;DHT22;9458;50.942;5.074;2022-10-31T10:46:19;16.20;99.90
18658;DHT22;9458;50.942;5.074;2022-10-31T10:49:12;16.30;99.90
18658;DHT22;9458;50.942;5.074;2022-10-31T10:51:45;16.30;99.90
18658;DHT22;9458;50.942;5.074;2022-10-31T10:54:24;16.30;99.90
18658;DHT22;9458;50.942;5.074;2022-10-31T10:57:02;16.40;99.90
18658;DHT22;9458;50.942;5.074;2022-10-31T10:59:34;16.30;99.90
18658;DHT22;9458;50.942;5.074;2022-10-31T11:02:15;16.40;99.90
18658;DHT22;9458;50.942;5.074;2022-10-31T11:04:43;16.40;99.90
18658;DHT22;9458;50.942;5.074;2022-10-31T11:07:12;16.50;99.90
18658;DHT22;9458;50.942;5.074;2022-10-31T11:09:40;16.60;99.90
18658;DHT22;9458;50.942;5.074;2022-10-31T11:12:09;16.60;99.90
18658;DHT22;9458;50.942;5.074;2022-10-31T11:14:45;16.60;99.90
18658;DHT22;9458;50.942;5.074;2022-10-31T11:17:26;16.70;99.90
18658;DHT22;9458;50.942;5.074;2022-10-31T11:20:05;16.70;99.90
18658;DHT22;9458;50.942;5.074;2022-10-31T11:22:33;16.80;99.90
18658;DHT22;9458;50.942;5.074;2022-10-31T11:25:20;16.70;99.90
18658;DHT22;9458;50.942;5.074;2022-10-31T11:27:59;16.80;99.90
18658;DHT22;9458;50.942;5.074;2022-10-31T11:30:26;16.80;99.90
18658;DHT22;9458;50.942;5.074;2022-10-31T11:32:56;16.80;99.90
18658;DHT22;9458;50.942;5.074;2022-10-31T11:35:24;16.80;99.90
18658;DHT22;9458;50.942;5.074;2022-10-31T11:37:55;16.90;99.90
18658;DHT22;9458;50.942;5.074;2022-10-31T11:40:25;16.90;99.90
18658;DHT22;9458;50.942;5.074;2022-10-31T11:42:55;16.90;99.90
18658;DHT22;9458;50.942;5.074;2022-10-31T11:45:30;17.00;99.90
18658;DHT22;9458;50.942;5.074;2022-10-31T11:48:02;17.00;99.90
18658;DHT22;9458;50.942;5.074;2022-10-31T11:50:48;17.10;99.90
18658;DHT22;9458;50.942;5.074;2022-10-31T11:53:19;17.10;99.90
18658;DHT22;9458;50.942;5.074;2022-10-31T11:56:01;17.00;99.90
18658;DHT22;9458;50.942;5.074;2022-10-31T11:58:31;17.10;99.90
18658;DHT22;9458;50.942;5.074;2022-10-31T12:01:00;17.00;99.90
18658;DHT22;9458;50.942;5.074;2022-10-31T12:03:51;17.10;99.90
18658;DHT22;9458;50.942;5.074;2022-10-31T12:09:19;17.10;99.90
18658;DHT22;9458;50.942;5.074;2022-10-31T12:11:57;17.10;99.90
18658;DHT22;9458;50.942;5.074;2022-10-31T12:14:37;17.10;99.90
18658;DHT22;9458;50.942;5.074;2022-10-31T12:17:14;17.20;99.90
18658;DHT22;9458;50.942;5.074;2022-10-31T12:19:53;17.20;99.90
18658;DHT22;9458;50.942;5.074;2022-10-31T12:22:33;17.20;99.90
18658;DHT22;9458;50.942;5.074;2022-10-31T12:25:26;17.20;99.90
18658;DHT22;9458;50.942;5.074;2022-10-31T12:28:25;17.20;99.90
18658;DHT22;9458;50.942;5.074;2022-10-31T12:31:17;17.20;99.90
18658;DHT22;9458;50.942;5.074;2022-10-31T12:33:54;17.20;99.90
18658;DHT22;9458;50.942;5.074;2022-10-31T12:36:40;17.20;99.90
18658;DHT22;9458;50.942;5.074;2022-10-31T12:39:30;17.20;99.90
18658;DHT22;9458;50.942;5.074;2022-10-31T12:42:04;17.20;99.90
18658;DHT22;9458;50.942;5.074;2022-10-31T12:45:10;17.30;99.90
18658;DHT22;9458;50.942;5.074;2022-10-31T12:47:58;17.30;99.90
18658;DHT22;9458;50.942;5.074;2022-10-31T12:50:47;17.30;99.90
18658;DHT22;9458;50.942;5.074;2022-10-31T12:53:27;17.30;99.90
18658;DHT22;9458;50.942;5.074;2022-10-31T12:56:11;17.30;99.90
18658;DHT22;9458;50.942;5.074;2022-10-31T12:58:45;17.30;99.90
18658;DHT22;9458;50.942;5.074;2022-10-31T13:01:17;17.30;99.90
18658;DHT22;9458;50.942;5.074;2022-10-31T13:03:50;17.30;99.90
18658;DHT22;9458;50.942;5.074;2022-10-31T13:06:22;17.30;99.90
18658;DHT22;9458;50.942;5.074;2022-10-31T13:08:54;17.30;99.90
18658;DHT22;9458;50.942;5.074;2022-10-31T13:11:26;17.30;99.90
18658;DHT22;9458;50.942;5.074;2022-10-31T13:14:02;17.30;99.90
18658;DHT22;9458;50.942;5.074;2022-10-31T13:16:36;17.30;99.90
18658;DHT22;9458;50.942;5.074;2022-10-31T13:19:10;17.40;99.90
18658;DHT22;9458;50.942;5.074;2022-10-31T13:21:43;17.40;99.90
18658;DHT22;9458;50.942;5.074;2022-10-31T13:24:18;17.40;99.90
18658;DHT22;9458;50.942;5.074;2022-10-31T13:26:50;17.50;99.90
18658;DHT22;9458;50.942;5.074;2022-10-31T13:29:24;17.50;99.90
18658;DHT22;9458;50.942;5.074;2022-10-31T13:31:54;17.50;99.90
18658;DHT22;9458;50.942;5.074;2022-10-31T13:34:26;17.50;99.90
18658;DHT22;9458;50.942;5.074;2022-10-31T13:37:04;17.40;99.90
18658;DHT22;9458;50.942;5.074;2022-10-31T13:40:00;17.50;99.90
18658;DHT22;9458;50.942;5.074;2022-10-31T13:42:41;17.50;99.90
18658;DHT22;9458;50.942;5.074;2022-10-31T13:45:13;17.50;99.90
18658;DHT22;9458;50.942;5.074;2022-10-31T13:47:42;17.50;99.90
18658;DHT22;9458;50.942;5.074;2022-10-31T13:50:21;17.50;99.90
18658;DHT22;9458;50.942;5.074;2022-10-31T13:52:50;17.50;99.90
18658;DHT22;9458;50.942;5.074;2022-10-31T13:55:40;17.50;99.90
18658;DHT22;9458;50.942;5.074;2022-10-31T13:58:23;17.40;99.90
18658;DHT22;9458;50.942;5.074;2022-10-31T14:01:12;17.40;99.90
18658;DHT22;9458;50.942;5.074;2022-10-31T14:03:44;17.40;99.90
18658;DHT22;9458;50.942;5.074;2022-10-31T14:06:14;17.40;99.90
18658;DHT22;9458;50.942;5.074;2022-10-31T14:08:49;17.40;99.90
18658;DHT22;9458;50.942;5.074;2022-10-31T14:11:26;17.40;99.90
18658;DHT22;9458;50.942;5.074;2022-10-31T14:13:59;17.40;99.90
18658;DHT22;9458;50.942;5.074;2022-10-31T14:16:31;17.40;99.90
18658;DHT22;9458;50.942;5.074;2022-10-31T14:19:01;17.30;99.90
18658;DHT22;9458;50.942;5.074;2022-10-31T14:21:35;17.30;99.90
18658;DHT22;9458;50.942;5.074;2022-10-31T14:24:13;17.30;99.90
18658;DHT22;9458;50.942;5.074;2022-10-31T14:26:52;17.40;99.90
18658;DHT22;9458;50.942;5.074;2022-10-31T14:29:23;17.30;99.90
18658;DHT22;9458;50.942;5.074;2022-10-31T14:31:55;17.40;99.90
18658;DHT22;9458;50.942;5.074;2022-10-31T14:34:26;17.40;99.90
18658;DHT22;9458;50.942;5.074;2022-10-31T14:40:02;17.40;99.90
18658;DHT22;9458;50.942;5.074;2022-10-31T14:42:45;17.40;99.90
18658;DHT22;9458;50.942;5.074;2022-10-31T14:45:34;17.40;99.90
18658;DHT22;9458;50.942;5.074;2022-10-31T14:48:15;17.40;99.90
18658;DHT22;9458;50.942;5.074;2022-10-31T14:50:58;17.40;99.90
18658;DHT22;9458;50.942;5.074;2022-10-31T14:53:28;17.40;99.90
18658;DHT22;9458;50.942;5.074;2022-10-31T14:55:58;17.40;99.90
18658;DHT22;9458;50.942;5.074;2022-10-31T14:58:33;17.40;99.90
18658;DHT22;9458;50.942;5.074;2022-10-31T15:01:04;17.40;99.90
18658;DHT22;9458;50.942;5.074;2022-10-31T15:03:34;17.40;99.90
18658;DHT22;9458;50.942;5.074;2022-10-31T15:06:05;17.40;99.90
18658;DHT22;9458;50.942;5.074;2022-10-31T15:08:40;17.40;99.90
18658;DHT22;9458;50.942;5.074;2022-10-31T15:11:12;17.30;99.90
18658;DHT22;9458;50.942;5.074;2022-10-31T15:13:47;17.30;99.90
18658;DHT22;9458;50.942;5.074;2022-10-31T15:16:20;17.30;99.90
18658;DHT22;9458;50.942;5.074;2022-10-31T15:18:52;17.30;99.90
18658;DHT22;9458;50.942;5.074;2022-10-31T15:21:24;17.30;99.90
18658;DHT22;9458;50.942;5.074;2022-10-31T15:23:55;17.30;99.90
18658;DHT22;9458;50.942;5.074;2022-10-31T15:26:31;17.30;99.90
18658;DHT22;9458;50.942;5.074;2022-10-31T15:29:03;17.30;99.90
18658;DHT22;9458;50.942;5.074;2022-10-31T15:31:32;17.30;99.90
18658;DHT22;9458;50.942;5.074;2022-10-31T15:34:05;17.40;99.90
18658;DHT22;9458;50.942;5.074;2022-10-31T15:36:34;17.40;99.90
18658;DHT22;9458;50.942;5.074;2022-10-31T15:39:02;17.40;99.90
18658;DHT22;9458;50.942;5.074;2022-10-31T15:41:33;17.30;99.90
18658;DHT22;9458;50.942;5.074;2022-10-31T15:44:16;17.40;99.90
18658;DHT22;9458;50.942;5.074;2022-10-31T15:46:52;17.30;99.90
18658;DHT22;9458;50.942;5.074;2022-10-31T15:49:32;17.30;99.90
18658;DHT22;9458;50.942;5.074;2022-10-31T15:52:05;17.30;99.90
18658;DHT22;9458;50.942;5.074;2022-10-31T15:54:34;17.30;99.90
18658;DHT22;9458;50.942;5.074;2022-10-31T15:57:02;17.30;99.90
18658;DHT22;9458;50.942;5.074;2022-10-31T15:59:37;17.30;99.90
18658;DHT22;9458;50.942;5.074;2022-10-31T16:02:10;17.20;99.90
18658;DHT22;9458;50.942;5.074;2022-10-31T16:04:48;17.20;99.90
18658;DHT22;9458;50.942;5.074;2022-10-31T16:07:18;17.20;99.90
18658;DHT22;9458;50.942;5.074;2022-10-31T16:09:52;17.20;99.90
18658;DHT22;9458;50.942;5.074;2022-10-31T16:12:21;17.10;99.90
18658;DHT22;9458;50.942;5.074;2022-10-31T16:14:51;17.10;99.90
18658;DHT22;9458;50.942;5.074;2022-10-31T16:17:22;17.10;99.90
18658;DHT22;9458;50.942;5.074;2022-10-31T16:19:55;17.10;99.90
18658;DHT22;9458;50.942;5.074;2022-10-31T16:22:26;17.00;99.90
18658;DHT22;9458;50.942;5.074;2022-10-31T16:24:58;17.00;99.90
18658;DHT22;9458;50.942;5.074;2022-10-31T16:27:31;17.00;99.90
18658;DHT22;9458;50.942;5.074;2022-10-31T16:30:03;16.90;99.90